sensor_id;sensor_type;location;lat;lon;timestamp;P1;durP1;ratioP1;P2;durP2;ratioP2
71207;SDS011;58938;49.868;8.646;2023-04-24T00:00:55;3.90;;;1.80;;
71207;SDS011;58938;49.868;8.646;2023-04-24T00:03:26;6.67;;;2.07;;
71207;SDS011;58938;49.868;8.646;2023-04-24T00:05:53;4.38;;;2.40;;
71207;SDS011;58938;49.868;8.646;2023-04-24T00:08:19;8.02;;;3.17;;
71207;SDS011;58938;49.868;8.646;2023-04-24T00:10:47;4.85;;;2.28;;
71207;SDS011;58938;49.868;8.646;2023-04-24T00:13:13;4.00;;;2.60;;
71207;SDS011;58938;49.868;8.646;2023-04-24T00:15:39;3.95;;;1.95;;
71207;SDS011;58938;49.868;8.646;2023-04-24T00:18:05;4.22;;;1.98;;
71207;SDS011;58938;49.868;8.646;2023-04-24T00:20:31;4.55;;;2.50;;
71207;SDS011;58938;49.868;8.646;2023-04-24T00:22:58;4.55;;;2.20;;
71207;SDS011;58938;49.868;8.646;2023-04-24T00:25:24;5.43;;;2.00;;
71207;SDS011;58938;49.868;8.646;2023-04-24T00:27:50;4.63;;;1.80;;
71207;SDS011;58938;49.868;8.646;2023-04-24T00:30:16;4.43;;;2.70;;
71207;SDS011;58938;49.868;8.646;2023-04-24T00:32:42;4.90;;;2.00;;
71207;SDS011;58938;49.868;8.646;2023-04-24T00:35:08;4.60;;;2.38;;
71207;SDS011;58938;49.868;8.646;2023-04-24T00:37:36;4.57;;;2.50;;
71207;SDS011;58938;49.868;8.646;2023-04-24T00:40:02;4.70;;;2.25;;
71207;SDS011;58938;49.868;8.646;2023-04-24T00:42:28;4.03;;;2.17;;
71207;SDS011;58938;49.868;8.646;2023-04-24T00:44:54;5.88;;;2.25;;
71207;SDS011;58938;49.868;8.646;2023-04-24T00:47:21;5.70;;;2.63;;
71207;SDS011;58938;49.868;8.646;2023-04-24T00:49:47;4.20;;;2.30;;
71207;SDS011;58938;49.868;8.646;2023-04-24T00:52:13;5.90;;;2.47;;
71207;SDS011;58938;49.868;8.646;2023-04-24T00:54:43;4.70;;;2.40;;
71207;SDS011;58938;49.868;8.646;2023-04-24T00:57:10;4.70;;;2.00;;
71207;SDS011;58938;49.868;8.646;2023-04-24T00:59:36;5.17;;;2.63;;
71207;SDS011;58938;49.868;8.646;2023-04-24T01:02:02;4.88;;;1.75;;
71207;SDS011;58938;49.868;8.646;2023-04-24T01:04:28;5.18;;;2.40;;
71207;SDS011;58938;49.868;8.646;2023-04-24T01:06:54;4.85;;;2.40;;
71207;SDS011;58938;49.868;8.646;2023-04-24T01:09:21;6.28;;;2.80;;
71207;SDS011;58938;49.868;8.646;2023-04-24T01:11:48;4.00;;;2.00;;
71207;SDS011;58938;49.868;8.646;2023-04-24T01:14:15;7.07;;;2.75;;
71207;SDS011;58938;49.868;8.646;2023-04-24T01:16:41;4.50;;;2.70;;
71207;SDS011;58938;49.868;8.646;2023-04-24T01:19:07;5.78;;;2.83;;
71207;SDS011;58938;49.868;8.646;2023-04-24T01:21:36;3.90;;;2.00;;
71207;SDS011;58938;49.868;8.646;2023-04-24T01:24:03;5.22;;;2.10;;
71207;SDS011;58938;49.868;8.646;2023-04-24T01:26:29;5.13;;;2.70;;
71207;SDS011;58938;49.868;8.646;2023-04-24T01:28:55;6.15;;;2.30;;
71207;SDS011;58938;49.868;8.646;2023-04-24T01:31:21;4.32;;;2.10;;
71207;SDS011;58938;49.868;8.646;2023-04-24T01:33:48;4.80;;;2.27;;
71207;SDS011;58938;49.868;8.646;2023-04-24T01:36:14;4.13;;;2.50;;
71207;SDS011;58938;49.868;8.646;2023-04-24T01:38:42;5.05;;;2.10;;
71207;SDS011;58938;49.868;8.646;2023-04-24T01:41:08;5.05;;;2.30;;
71207;SDS011;58938;49.868;8.646;2023-04-24T01:43:34;5.80;;;2.60;;
71207;SDS011;58938;49.868;8.646;2023-04-24T01:46:00;5.22;;;2.60;;
71207;SDS011;58938;49.868;8.646;2023-04-24T01:48:26;5.07;;;2.55;;
71207;SDS011;58938;49.868;8.646;2023-04-24T01:50:52;4.13;;;2.30;;
71207;SDS011;58938;49.868;8.646;2023-04-24T01:53:19;4.25;;;2.20;;
71207;SDS011;58938;49.868;8.646;2023-04-24T01:55:45;4.37;;;2.00;;
71207;SDS011;58938;49.868;8.646;2023-04-24T01:58:11;5.38;;;2.20;;
71207;SDS011;58938;49.868;8.646;2023-04-24T02:00:37;4.95;;;2.08;;
71207;SDS011;58938;49.868;8.646;2023-04-24T02:03:03;4.10;;;2.45;;
71207;SDS011;58938;49.868;8.646;2023-04-24T02:05:29;6.00;;;2.10;;
71207;SDS011;58938;49.868;8.646;2023-04-24T02:07:55;4.13;;;2.50;;
71207;SDS011;58938;49.868;8.646;2023-04-24T02:10:21;5.07;;;2.58;;
71207;SDS011;58938;49.868;8.646;2023-04-24T02:12:47;4.55;;;2.50;;
71207;SDS011;58938;49.868;8.646;2023-04-24T02:15:13;5.70;;;2.70;;
71207;SDS011;58938;49.868;8.646;2023-04-24T02:17:39;5.80;;;2.30;;
71207;SDS011;58938;49.868;8.646;2023-04-24T02:20:06;5.68;;;2.45;;
71207;SDS011;58938;49.868;8.646;2023-04-24T02:22:32;4.80;;;2.60;;
71207;SDS011;58938;49.868;8.646;2023-04-24T02:24:58;4.40;;;2.50;;
71207;SDS011;58938;49.868;8.646;2023-04-24T02:27:24;5.38;;;2.40;;
71207;SDS011;58938;49.868;8.646;2023-04-24T02:29:50;5.65;;;2.50;;
71207;SDS011;58938;49.868;8.646;2023-04-24T02:32:16;6.15;;;2.80;;
71207;SDS011;58938;49.868;8.646;2023-04-24T02:34:41;4.83;;;2.50;;
71207;SDS011;58938;49.868;8.646;2023-04-24T02:37:07;5.53;;;2.47;;
71207;SDS011;58938;49.868;8.646;2023-04-24T02:39:33;4.53;;;2.72;;
71207;SDS011;58938;49.868;8.646;2023-04-24T02:41:59;6.40;;;2.80;;
71207;SDS011;58938;49.868;8.646;2023-04-24T02:44:26;4.38;;;2.17;;
71207;SDS011;58938;49.868;8.646;2023-04-24T02:46:52;4.63;;;2.60;;
71207;SDS011;58938;49.868;8.646;2023-04-24T02:49:18;4.15;;;2.38;;
71207;SDS011;58938;49.868;8.646;2023-04-24T02:51:44;7.03;;;2.75;;
71207;SDS011;58938;49.868;8.646;2023-04-24T02:54:10;4.73;;;2.80;;
71207;SDS011;58938;49.868;8.646;2023-04-24T02:56:36;5.18;;;2.90;;
71207;SDS011;58938;49.868;8.646;2023-04-24T02:59:02;5.20;;;2.35;;
71207;SDS011;58938;49.868;8.646;2023-04-24T03:01:28;6.22;;;2.75;;
71207;SDS011;58938;49.868;8.646;2023-04-24T03:03:54;5.40;;;2.53;;
71207;SDS011;58938;49.868;8.646;2023-04-24T03:06:20;6.03;;;2.38;;
71207;SDS011;58938;49.868;8.646;2023-04-24T03:08:46;4.97;;;2.15;;
71207;SDS011;58938;49.868;8.646;2023-04-24T03:11:12;5.65;;;2.90;;
71207;SDS011;58938;49.868;8.646;2023-04-24T03:13:38;5.93;;;2.70;;
71207;SDS011;58938;49.868;8.646;2023-04-24T03:16:04;6.88;;;3.00;;
71207;SDS011;58938;49.868;8.646;2023-04-24T03:18:30;5.95;;;2.45;;
71207;SDS011;58938;49.868;8.646;2023-04-24T03:20:56;5.47;;;3.00;;
71207;SDS011;58938;49.868;8.646;2023-04-24T03:23:22;5.63;;;3.10;;
71207;SDS011;58938;49.868;8.646;2023-04-24T03:25:48;4.93;;;2.80;;
71207;SDS011;58938;49.868;8.646;2023-04-24T03:28:14;5.03;;;2.45;;
71207;SDS011;58938;49.868;8.646;2023-04-24T03:30:40;6.53;;;2.65;;
71207;SDS011;58938;49.868;8.646;2023-04-24T03:33:06;5.82;;;2.75;;
71207;SDS011;58938;49.868;8.646;2023-04-24T03:35:32;4.70;;;2.43;;
71207;SDS011;58938;49.868;8.646;2023-04-24T03:37:58;5.55;;;2.90;;
71207;SDS011;58938;49.868;8.646;2023-04-24T03:40:24;6.35;;;3.35;;
71207;SDS011;58938;49.868;8.646;2023-04-24T03:42:50;5.70;;;2.65;;
71207;SDS011;58938;49.868;8.646;2023-04-24T03:45:16;6.83;;;3.10;;
71207;SDS011;58938;49.868;8.646;2023-04-24T03:47:42;5.88;;;2.67;;
71207;SDS011;58938;49.868;8.646;2023-04-24T03:50:08;5.28;;;2.45;;
71207;SDS011;58938;49.868;8.646;2023-04-24T03:52:34;6.35;;;2.60;;
71207;SDS011;58938;49.868;8.646;2023-04-24T03:55:00;3.93;;;2.37;;
71207;SDS011;58938;49.868;8.646;2023-04-24T03:57:26;5.22;;;2.88;;
71207;SDS011;58938;49.868;8.646;2023-04-24T03:59:52;5.85;;;2.78;;
71207;SDS011;58938;49.868;8.646;2023-04-24T04:02:18;5.57;;;3.60;;
71207;SDS011;58938;49.868;8.646;2023-04-24T04:04:44;6.43;;;3.10;;
71207;SDS011;58938;49.868;8.646;2023-04-24T04:07:10;5.15;;;2.95;;
71207;SDS011;58938;49.868;8.646;2023-04-24T04:09:37;6.35;;;2.70;;
71207;SDS011;58938;49.868;8.646;2023-04-24T04:12:03;6.82;;;3.10;;
71207;SDS011;58938;49.868;8.646;2023-04-24T04:14:29;4.93;;;2.50;;
71207;SDS011;58938;49.868;8.646;2023-04-24T04:16:55;5.88;;;2.97;;
71207;SDS011;58938;49.868;8.646;2023-04-24T04:19:21;7.10;;;3.00;;
71207;SDS011;58938;49.868;8.646;2023-04-24T04:21:47;4.43;;;2.08;;
71207;SDS011;58938;49.868;8.646;2023-04-24T04:24:17;6.55;;;3.20;;
71207;SDS011;58938;49.868;8.646;2023-04-24T04:26:43;6.97;;;3.30;;
71207;SDS011;58938;49.868;8.646;2023-04-24T04:29:13;6.05;;;2.90;;
71207;SDS011;58938;49.868;8.646;2023-04-24T04:31:40;5.05;;;2.92;;
71207;SDS011;58938;49.868;8.646;2023-04-24T04:34:06;6.00;;;2.78;;
71207;SDS011;58938;49.868;8.646;2023-04-24T04:36:32;5.18;;;3.03;;
71207;SDS011;58938;49.868;8.646;2023-04-24T04:39:01;7.93;;;3.73;;
71207;SDS011;58938;49.868;8.646;2023-04-24T04:41:27;5.68;;;3.70;;
71207;SDS011;58938;49.868;8.646;2023-04-24T04:43:53;5.43;;;3.33;;
71207;SDS011;58938;49.868;8.646;2023-04-24T04:46:19;5.78;;;3.45;;
71207;SDS011;58938;49.868;8.646;2023-04-24T04:48:46;5.63;;;3.50;;
71207;SDS011;58938;49.868;8.646;2023-04-24T04:51:12;6.03;;;3.83;;
71207;SDS011;58938;49.868;8.646;2023-04-24T04:53:38;7.05;;;4.45;;
71207;SDS011;58938;49.868;8.646;2023-04-24T04:56:04;8.02;;;3.97;;
71207;SDS011;58938;49.868;8.646;2023-04-24T04:58:30;6.60;;;4.57;;
71207;SDS011;58938;49.868;8.646;2023-04-24T05:00:56;7.37;;;4.50;;
71207;SDS011;58938;49.868;8.646;2023-04-24T05:03:22;6.78;;;4.38;;
71207;SDS011;58938;49.868;8.646;2023-04-24T05:05:48;7.00;;;4.45;;
71207;SDS011;58938;49.868;8.646;2023-04-24T05:08:14;6.88;;;4.20;;
71207;SDS011;58938;49.868;8.646;2023-04-24T05:10:40;6.47;;;4.20;;
71207;SDS011;58938;49.868;8.646;2023-04-24T05:13:06;7.68;;;4.25;;
71207;SDS011;58938;49.868;8.646;2023-04-24T05:15:32;9.25;;;4.32;;
71207;SDS011;58938;49.868;8.646;2023-04-24T05:17:58;10.80;;;4.20;;
71207;SDS011;58938;49.868;8.646;2023-04-24T05:20:24;7.03;;;4.03;;
71207;SDS011;58938;49.868;8.646;2023-04-24T05:22:50;6.93;;;3.07;;
71207;SDS011;58938;49.868;8.646;2023-04-24T05:25:16;8.02;;;4.40;;
71207;SDS011;58938;49.868;8.646;2023-04-24T05:27:42;8.25;;;4.95;;
71207;SDS011;58938;49.868;8.646;2023-04-24T05:30:09;8.32;;;4.60;;
71207;SDS011;58938;49.868;8.646;2023-04-24T05:32:35;9.83;;;4.23;;
71207;SDS011;58938;49.868;8.646;2023-04-24T05:35:01;7.47;;;4.18;;
71207;SDS011;58938;49.868;8.646;2023-04-24T05:37:27;8.45;;;4.60;;
71207;SDS011;58938;49.868;8.646;2023-04-24T05:39:53;8.40;;;4.07;;
71207;SDS011;58938;49.868;8.646;2023-04-24T05:42:19;10.50;;;5.07;;
71207;SDS011;58938;49.868;8.646;2023-04-24T05:44:45;10.60;;;4.78;;
71207;SDS011;58938;49.868;8.646;2023-04-24T05:47:11;6.03;;;4.45;;
71207;SDS011;58938;49.868;8.646;2023-04-24T05:49:37;7.43;;;4.88;;
71207;SDS011;58938;49.868;8.646;2023-04-24T05:52:03;7.23;;;4.57;;
71207;SDS011;58938;49.868;8.646;2023-04-24T05:54:31;8.00;;;4.30;;
71207;SDS011;58938;49.868;8.646;2023-04-24T05:56:57;7.28;;;4.75;;
71207;SDS011;58938;49.868;8.646;2023-04-24T05:59:23;6.40;;;4.38;;
71207;SDS011;58938;49.868;8.646;2023-04-24T06:01:49;6.93;;;3.77;;
71207;SDS011;58938;49.868;8.646;2023-04-24T06:04:15;10.05;;;4.40;;
71207;SDS011;58938;49.868;8.646;2023-04-24T06:06:41;7.13;;;4.28;;
71207;SDS011;58938;49.868;8.646;2023-04-24T06:09:07;8.63;;;4.50;;
71207;SDS011;58938;49.868;8.646;2023-04-24T06:11:33;5.57;;;3.33;;
71207;SDS011;58938;49.868;8.646;2023-04-24T06:13:59;8.95;;;4.55;;
71207;SDS011;58938;49.868;8.646;2023-04-24T06:16:25;7.55;;;4.68;;
71207;SDS011;58938;49.868;8.646;2023-04-24T06:18:51;8.30;;;4.88;;
71207;SDS011;58938;49.868;8.646;2023-04-24T06:21:17;9.07;;;5.00;;
71207;SDS011;58938;49.868;8.646;2023-04-24T06:23:43;7.70;;;5.05;;
71207;SDS011;58938;49.868;8.646;2023-04-24T06:26:11;7.13;;;5.28;;
71207;SDS011;58938;49.868;8.646;2023-04-24T06:28:37;6.72;;;4.50;;
71207;SDS011;58938;49.868;8.646;2023-04-24T06:31:03;5.77;;;3.33;;
71207;SDS011;58938;49.868;8.646;2023-04-24T06:33:29;8.30;;;4.70;;
71207;SDS011;58938;49.868;8.646;2023-04-24T06:35:55;8.90;;;5.55;;
71207;SDS011;58938;49.868;8.646;2023-04-24T06:38:21;7.28;;;5.45;;
71207;SDS011;58938;49.868;8.646;2023-04-24T06:40:47;7.03;;;3.97;;
71207;SDS011;58938;49.868;8.646;2023-04-24T06:43:13;7.07;;;4.20;;
71207;SDS011;58938;49.868;8.646;2023-04-24T06:45:39;10.80;;;5.43;;
71207;SDS011;58938;49.868;8.646;2023-04-24T06:48:06;6.40;;;4.18;;
71207;SDS011;58938;49.868;8.646;2023-04-24T06:50:32;9.30;;;5.13;;
71207;SDS011;58938;49.868;8.646;2023-04-24T06:52:58;6.50;;;4.07;;
71207;SDS011;58938;49.868;8.646;2023-04-24T06:55:24;8.37;;;5.90;;
71207;SDS011;58938;49.868;8.646;2023-04-24T06:57:50;9.15;;;5.63;;
71207;SDS011;58938;49.868;8.646;2023-04-24T07:00:16;9.57;;;6.05;;
71207;SDS011;58938;49.868;8.646;2023-04-24T07:02:42;11.00;;;6.68;;
71207;SDS011;58938;49.868;8.646;2023-04-24T07:05:08;8.77;;;5.50;;
71207;SDS011;58938;49.868;8.646;2023-04-24T07:07:34;6.47;;;3.97;;
71207;SDS011;58938;49.868;8.646;2023-04-24T07:10:02;10.68;;;5.82;;
71207;SDS011;58938;49.868;8.646;2023-04-24T07:12:29;9.40;;;5.85;;
71207;SDS011;58938;49.868;8.646;2023-04-24T07:14:54;10.65;;;5.70;;
71207;SDS011;58938;49.868;8.646;2023-04-24T07:17:20;8.23;;;5.53;;
71207;SDS011;58938;49.868;8.646;2023-04-24T07:19:46;8.73;;;6.03;;
71207;SDS011;58938;49.868;8.646;2023-04-24T07:22:12;9.50;;;4.90;;
71207;SDS011;58938;49.868;8.646;2023-04-24T07:24:42;9.13;;;4.88;;
71207;SDS011;58938;49.868;8.646;2023-04-24T07:27:08;8.57;;;5.70;;
71207;SDS011;58938;49.868;8.646;2023-04-24T07:29:34;8.47;;;5.37;;
71207;SDS011;58938;49.868;8.646;2023-04-24T07:32:00;9.45;;;6.15;;
71207;SDS011;58938;49.868;8.646;2023-04-24T07:34:26;9.25;;;5.78;;
71207;SDS011;58938;49.868;8.646;2023-04-24T07:36:52;8.90;;;5.50;;
71207;SDS011;58938;49.868;8.646;2023-04-24T07:39:18;7.55;;;5.22;;
71207;SDS011;58938;49.868;8.646;2023-04-24T07:41:44;10.40;;;6.00;;
71207;SDS011;58938;49.868;8.646;2023-04-24T07:44:10;11.18;;;6.28;;
71207;SDS011;58938;49.868;8.646;2023-04-24T07:46:36;7.45;;;4.80;;
71207;SDS011;58938;49.868;8.646;2023-04-24T07:49:02;9.20;;;6.30;;
71207;SDS011;58938;49.868;8.646;2023-04-24T07:51:30;10.13;;;6.57;;
71207;SDS011;58938;49.868;8.646;2023-04-24T07:53:57;9.73;;;5.20;;
71207;SDS011;58938;49.868;8.646;2023-04-24T07:56:23;8.93;;;5.38;;
71207;SDS011;58938;49.868;8.646;2023-04-24T07:58:50;8.40;;;5.78;;
71207;SDS011;58938;49.868;8.646;2023-04-24T08:01:16;7.15;;;4.22;;
71207;SDS011;58938;49.868;8.646;2023-04-24T08:03:41;8.13;;;3.87;;
71207;SDS011;58938;49.868;8.646;2023-04-24T08:06:07;12.48;;;3.88;;
71207;SDS011;58938;49.868;8.646;2023-04-24T08:08:33;8.38;;;3.30;;
71207;SDS011;58938;49.868;8.646;2023-04-24T08:11:00;5.95;;;3.10;;
71207;SDS011;58938;49.868;8.646;2023-04-24T08:13:26;5.03;;;3.00;;
71207;SDS011;58938;49.868;8.646;2023-04-24T08:15:52;5.15;;;3.28;;
71207;SDS011;58938;49.868;8.646;2023-04-24T08:18:18;6.40;;;3.15;;
71207;SDS011;58938;49.868;8.646;2023-04-24T08:20:44;4.93;;;2.78;;
71207;SDS011;58938;49.868;8.646;2023-04-24T08:23:10;5.80;;;3.40;;
71207;SDS011;58938;49.868;8.646;2023-04-24T08:25:36;5.78;;;3.40;;
71207;SDS011;58938;49.868;8.646;2023-04-24T08:28:03;6.00;;;3.85;;
71207;SDS011;58938;49.868;8.646;2023-04-24T08:30:29;6.03;;;3.40;;
71207;SDS011;58938;49.868;8.646;2023-04-24T08:32:55;5.73;;;3.83;;
71207;SDS011;58938;49.868;8.646;2023-04-24T08:35:21;7.83;;;3.60;;
71207;SDS011;58938;49.868;8.646;2023-04-24T08:37:48;5.90;;;4.18;;
71207;SDS011;58938;49.868;8.646;2023-04-24T08:40:14;5.40;;;3.65;;
71207;SDS011;58938;49.868;8.646;2023-04-24T08:42:41;6.03;;;3.47;;
71207;SDS011;58938;49.868;8.646;2023-04-24T08:45:08;7.78;;;4.35;;
71207;SDS011;58938;49.868;8.646;2023-04-24T08:47:35;6.53;;;3.37;;
71207;SDS011;58938;49.868;8.646;2023-04-24T08:50:02;5.10;;;3.30;;
71207;SDS011;58938;49.868;8.646;2023-04-24T08:52:30;6.10;;;4.13;;
71207;SDS011;58938;49.868;8.646;2023-04-24T08:54:57;6.97;;;3.95;;
71207;SDS011;58938;49.868;8.646;2023-04-24T08:57:24;6.43;;;4.00;;
71207;SDS011;58938;49.868;8.646;2023-04-24T08:59:50;5.50;;;3.60;;
71207;SDS011;58938;49.868;8.646;2023-04-24T09:02:17;5.68;;;4.00;;
71207;SDS011;58938;49.868;8.646;2023-04-24T09:04:43;6.15;;;4.03;;
71207;SDS011;58938;49.868;8.646;2023-04-24T09:07:10;7.65;;;4.30;;
71207;SDS011;58938;49.868;8.646;2023-04-24T09:09:37;7.75;;;4.85;;
71207;SDS011;58938;49.868;8.646;2023-04-24T09:12:04;4.33;;;2.53;;
71207;SDS011;58938;49.868;8.646;2023-04-24T09:14:30;6.53;;;4.22;;
71207;SDS011;58938;49.868;8.646;2023-04-24T09:16:57;5.18;;;3.60;;
71207;SDS011;58938;49.868;8.646;2023-04-24T09:19:23;6.65;;;4.30;;
71207;SDS011;58938;49.868;8.646;2023-04-24T09:21:49;7.97;;;4.00;;
71207;SDS011;58938;49.868;8.646;2023-04-24T09:24:16;6.83;;;4.93;;
71207;SDS011;58938;49.868;8.646;2023-04-24T09:26:42;6.63;;;3.97;;
71207;SDS011;58938;49.868;8.646;2023-04-24T09:29:13;5.38;;;3.65;;
71207;SDS011;58938;49.868;8.646;2023-04-24T09:31:40;7.03;;;4.90;;
71207;SDS011;58938;49.868;8.646;2023-04-24T09:34:06;6.45;;;4.53;;
71207;SDS011;58938;49.868;8.646;2023-04-24T09:36:33;5.30;;;3.60;;
71207;SDS011;58938;49.868;8.646;2023-04-24T09:39:02;5.45;;;3.80;;
71207;SDS011;58938;49.868;8.646;2023-04-24T09:41:29;7.15;;;4.65;;
71207;SDS011;58938;49.868;8.646;2023-04-24T09:43:55;9.52;;;3.85;;
71207;SDS011;58938;49.868;8.646;2023-04-24T09:46:28;6.50;;;3.55;;
71207;SDS011;58938;49.868;8.646;2023-04-24T09:48:55;7.00;;;4.97;;
71207;SDS011;58938;49.868;8.646;2023-04-24T09:51:32;5.20;;;3.83;;
71207;SDS011;58938;49.868;8.646;2023-04-24T09:53:59;4.65;;;2.28;;
71207;SDS011;58938;49.868;8.646;2023-04-24T09:56:25;6.70;;;4.05;;
71207;SDS011;58938;49.868;8.646;2023-04-24T09:58:51;7.50;;;4.20;;
71207;SDS011;58938;49.868;8.646;2023-04-24T10:01:29;6.18;;;4.22;;
71207;SDS011;58938;49.868;8.646;2023-04-24T10:03:55;5.20;;;3.17;;
71207;SDS011;58938;49.868;8.646;2023-04-24T10:06:21;5.57;;;3.90;;
71207;SDS011;58938;49.868;8.646;2023-04-24T10:08:47;6.83;;;3.57;;
71207;SDS011;58938;49.868;8.646;2023-04-24T10:11:13;6.72;;;3.53;;
71207;SDS011;58938;49.868;8.646;2023-04-24T10:13:40;6.25;;;4.47;;
71207;SDS011;58938;49.868;8.646;2023-04-24T10:16:06;5.18;;;3.10;;
71207;SDS011;58938;49.868;8.646;2023-04-24T10:18:32;6.18;;;3.97;;
71207;SDS011;58938;49.868;8.646;2023-04-24T10:20:59;6.37;;;4.20;;
71207;SDS011;58938;49.868;8.646;2023-04-24T10:23:25;7.05;;;3.65;;
71207;SDS011;58938;49.868;8.646;2023-04-24T10:25:51;5.32;;;3.17;;
71207;SDS011;58938;49.868;8.646;2023-04-24T10:28:19;7.38;;;4.22;;
71207;SDS011;58938;49.868;8.646;2023-04-24T10:30:45;7.75;;;4.30;;
71207;SDS011;58938;49.868;8.646;2023-04-24T10:33:11;6.50;;;4.10;;
71207;SDS011;58938;49.868;8.646;2023-04-24T10:35:40;7.50;;;4.57;;
71207;SDS011;58938;49.868;8.646;2023-04-24T10:38:11;7.80;;;3.85;;
71207;SDS011;58938;49.868;8.646;2023-04-24T10:40:38;5.57;;;4.18;;
71207;SDS011;58938;49.868;8.646;2023-04-24T10:43:04;7.68;;;4.00;;
71207;SDS011;58938;49.868;8.646;2023-04-24T10:45:33;4.83;;;3.10;;
71207;SDS011;58938;49.868;8.646;2023-04-24T10:50:29;6.90;;;3.63;;
71207;SDS011;58938;49.868;8.646;2023-04-24T10:53:05;7.32;;;4.10;;
71207;SDS011;58938;49.868;8.646;2023-04-24T10:55:51;5.50;;;3.40;;
71207;SDS011;58938;49.868;8.646;2023-04-24T10:58:23;6.90;;;2.90;;
71207;SDS011;58938;49.868;8.646;2023-04-24T11:00:59;7.55;;;4.35;;
71207;SDS011;58938;49.868;8.646;2023-04-24T11:03:26;5.78;;;2.92;;
71207;SDS011;58938;49.868;8.646;2023-04-24T11:05:54;6.05;;;3.97;;
71207;SDS011;58938;49.868;8.646;2023-04-24T11:08:24;6.60;;;4.15;;
71207;SDS011;58938;49.868;8.646;2023-04-24T11:10:55;6.53;;;3.83;;
71207;SDS011;58938;49.868;8.646;2023-04-24T11:13:22;5.80;;;3.00;;
71207;SDS011;58938;49.868;8.646;2023-04-24T11:18:37;6.70;;;3.53;;
71207;SDS011;58938;49.868;8.646;2023-04-24T11:21:15;5.90;;;3.50;;
71207;SDS011;58938;49.868;8.646;2023-04-24T11:23:42;7.53;;;4.57;;
71207;SDS011;58938;49.868;8.646;2023-04-24T11:26:11;6.75;;;4.10;;
71207;SDS011;58938;49.868;8.646;2023-04-24T11:28:43;6.97;;;4.15;;
71207;SDS011;58938;49.868;8.646;2023-04-24T11:33:54;9.63;;;5.88;;
71207;SDS011;58938;49.868;8.646;2023-04-24T11:36:20;8.10;;;5.20;;
71207;SDS011;58938;49.868;8.646;2023-04-24T11:38:46;9.90;;;6.28;;
71207;SDS011;58938;49.868;8.646;2023-04-24T11:41:13;10.52;;;5.45;;
71207;SDS011;58938;49.868;8.646;2023-04-24T11:43:39;6.82;;;3.95;;
71207;SDS011;58938;49.868;8.646;2023-04-24T11:46:05;6.57;;;3.90;;
71207;SDS011;58938;49.868;8.646;2023-04-24T11:48:34;9.75;;;5.45;;
71207;SDS011;58938;49.868;8.646;2023-04-24T11:51:01;7.10;;;4.07;;
71207;SDS011;58938;49.868;8.646;2023-04-24T11:53:27;8.40;;;4.55;;
71207;SDS011;58938;49.868;8.646;2023-04-24T11:55:53;7.05;;;4.10;;
71207;SDS011;58938;49.868;8.646;2023-04-24T11:58:22;7.87;;;4.53;;
71207;SDS011;58938;49.868;8.646;2023-04-24T12:00:53;7.85;;;5.22;;
71207;SDS011;58938;49.868;8.646;2023-04-24T12:03:21;6.22;;;4.28;;
71207;SDS011;58938;49.868;8.646;2023-04-24T12:05:47;9.25;;;4.60;;
71207;SDS011;58938;49.868;8.646;2023-04-24T12:08:26;7.50;;;5.00;;
71207;SDS011;58938;49.868;8.646;2023-04-24T12:10:52;10.27;;;5.90;;
71207;SDS011;58938;49.868;8.646;2023-04-24T12:13:18;6.75;;;3.92;;
71207;SDS011;58938;49.868;8.646;2023-04-24T12:15:45;4.38;;;2.65;;
71207;SDS011;58938;49.868;8.646;2023-04-24T12:18:11;5.57;;;3.63;;
71207;SDS011;58938;49.868;8.646;2023-04-24T12:20:40;6.70;;;4.20;;
71207;SDS011;58938;49.868;8.646;2023-04-24T12:23:06;6.20;;;3.38;;
71207;SDS011;58938;49.868;8.646;2023-04-24T12:25:32;5.75;;;3.92;;
71207;SDS011;58938;49.868;8.646;2023-04-24T12:30:34;7.10;;;4.68;;
71207;SDS011;58938;49.868;8.646;2023-04-24T12:33:02;6.07;;;3.67;;
71207;SDS011;58938;49.868;8.646;2023-04-24T12:35:29;6.13;;;3.97;;
71207;SDS011;58938;49.868;8.646;2023-04-24T12:38:04;6.32;;;4.00;;
71207;SDS011;58938;49.868;8.646;2023-04-24T12:40:31;6.75;;;3.47;;
71207;SDS011;58938;49.868;8.646;2023-04-24T12:42:57;7.28;;;4.65;;
71207;SDS011;58938;49.868;8.646;2023-04-24T12:45:23;7.60;;;3.23;;
71207;SDS011;58938;49.868;8.646;2023-04-24T12:47:50;7.57;;;4.15;;
71207;SDS011;58938;49.868;8.646;2023-04-24T12:50:16;4.95;;;3.20;;
71207;SDS011;58938;49.868;8.646;2023-04-24T12:52:42;6.38;;;3.80;;
71207;SDS011;58938;49.868;8.646;2023-04-24T12:55:09;7.20;;;4.70;;
71207;SDS011;58938;49.868;8.646;2023-04-24T12:57:37;6.67;;;4.00;;
71207;SDS011;58938;49.868;8.646;2023-04-24T13:00:04;7.20;;;3.38;;
71207;SDS011;58938;49.868;8.646;2023-04-24T13:02:30;6.70;;;4.45;;
71207;SDS011;58938;49.868;8.646;2023-04-24T13:04:56;7.57;;;4.40;;
71207;SDS011;58938;49.868;8.646;2023-04-24T13:07:22;5.95;;;4.03;;
71207;SDS011;58938;49.868;8.646;2023-04-24T13:09:49;8.53;;;4.90;;
71207;SDS011;58938;49.868;8.646;2023-04-24T13:12:15;5.45;;;3.78;;
71207;SDS011;58938;49.868;8.646;2023-04-24T13:14:41;7.38;;;3.88;;
71207;SDS011;58938;49.868;8.646;2023-04-24T13:17:07;7.78;;;4.65;;
71207;SDS011;58938;49.868;8.646;2023-04-24T13:19:37;9.63;;;4.38;;
71207;SDS011;58938;49.868;8.646;2023-04-24T13:22:04;7.07;;;3.93;;
71207;SDS011;58938;49.868;8.646;2023-04-24T13:24:30;7.65;;;4.60;;
71207;SDS011;58938;49.868;8.646;2023-04-24T13:26:56;8.57;;;4.70;;
71207;SDS011;58938;49.868;8.646;2023-04-24T13:29:22;7.72;;;3.85;;
71207;SDS011;58938;49.868;8.646;2023-04-24T13:31:52;7.00;;;4.17;;
71207;SDS011;58938;49.868;8.646;2023-04-24T13:34:22;6.95;;;4.55;;
71207;SDS011;58938;49.868;8.646;2023-04-24T13:36:49;6.18;;;3.85;;
71207;SDS011;58938;49.868;8.646;2023-04-24T13:39:15;8.95;;;4.53;;
71207;SDS011;58938;49.868;8.646;2023-04-24T13:41:41;6.15;;;3.78;;
71207;SDS011;58938;49.868;8.646;2023-04-24T13:44:07;7.53;;;5.20;;
71207;SDS011;58938;49.868;8.646;2023-04-24T13:46:34;7.97;;;4.28;;
71207;SDS011;58938;49.868;8.646;2023-04-24T13:49:01;5.82;;;3.75;;
71207;SDS011;58938;49.868;8.646;2023-04-24T13:51:27;6.22;;;4.32;;
71207;SDS011;58938;49.868;8.646;2023-04-24T13:53:53;9.00;;;5.10;;
71207;SDS011;58938;49.868;8.646;2023-04-24T13:56:20;6.97;;;4.30;;
71207;SDS011;58938;49.868;8.646;2023-04-24T13:58:46;6.80;;;4.10;;
71207;SDS011;58938;49.868;8.646;2023-04-24T14:01:12;8.13;;;4.95;;
71207;SDS011;58938;49.868;8.646;2023-04-24T14:03:38;6.25;;;3.30;;
71207;SDS011;58938;49.868;8.646;2023-04-24T14:06:04;9.75;;;5.25;;
71207;SDS011;58938;49.868;8.646;2023-04-24T14:08:31;8.73;;;3.73;;
71207;SDS011;58938;49.868;8.646;2023-04-24T14:10:57;6.32;;;3.30;;
71207;SDS011;58938;49.868;8.646;2023-04-24T14:13:23;9.65;;;4.53;;
71207;SDS011;58938;49.868;8.646;2023-04-24T14:15:50;6.03;;;3.75;;
71207;SDS011;58938;49.868;8.646;2023-04-24T14:18:17;8.98;;;4.05;;
71207;SDS011;58938;49.868;8.646;2023-04-24T14:20:43;5.30;;;3.80;;
71207;SDS011;58938;49.868;8.646;2023-04-24T14:23:10;6.78;;;4.28;;
71207;SDS011;58938;49.868;8.646;2023-04-24T14:25:36;6.78;;;4.40;;
71207;SDS011;58938;49.868;8.646;2023-04-24T14:28:02;7.00;;;4.18;;
71207;SDS011;58938;49.868;8.646;2023-04-24T14:30:27;6.97;;;4.30;;
71207;SDS011;58938;49.868;8.646;2023-04-24T14:32:53;5.75;;;3.45;;
71207;SDS011;58938;49.868;8.646;2023-04-24T14:35:21;8.45;;;4.97;;
71207;SDS011;58938;49.868;8.646;2023-04-24T14:37:47;6.88;;;4.00;;
71207;SDS011;58938;49.868;8.646;2023-04-24T14:40:14;7.13;;;4.07;;
71207;SDS011;58938;49.868;8.646;2023-04-24T14:42:40;7.53;;;3.53;;
71207;SDS011;58938;49.868;8.646;2023-04-24T14:45:06;6.47;;;4.00;;
71207;SDS011;58938;49.868;8.646;2023-04-24T14:47:33;7.13;;;3.80;;
71207;SDS011;58938;49.868;8.646;2023-04-24T14:49:59;6.63;;;3.30;;
71207;SDS011;58938;49.868;8.646;2023-04-24T14:52:25;8.40;;;4.05;;
71207;SDS011;58938;49.868;8.646;2023-04-24T14:54:51;6.47;;;3.20;;